sensor_id;sensor_type;location;lat;lon;timestamp;temperature;humidity
32753;DHT22;19121;52.428;10.816;2022-11-14T00:00:21;18.10;51.80
32753;DHT22;19121;52.428;10.816;2022-11-14T00:02:47;18.10;51.80
32753;DHT22;19121;52.428;10.816;2022-11-14T00:05:12;18.10;51.80
32753;DHT22;19121;52.428;10.816;2022-11-14T00:07:38;18.10;51.80
32753;DHT22;19121;52.428;10.816;2022-11-14T00:10:03;18.00;52.40
32753;DHT22;19121;52.428;10.816;2022-11-14T00:12:29;18.10;51.80
32753;DHT22;19121;52.428;10.816;2022-11-14T00:14:54;18.10;51.80
32753;DHT22;19121;52.428;10.816;2022-11-14T00:17:20;18.10;51.80
32753;DHT22;19121;52.428;10.816;2022-11-14T00:19:45;18.10;51.80
32753;DHT22;19121;52.428;10.816;2022-11-14T00:22:10;18.10;51.90
32753;DHT22;19121;52.428;10.816;2022-11-14T00:24:36;18.10;51.80
32753;DHT22;19121;52.428;10.816;2022-11-14T00:27:01;18.10;51.80
32753;DHT22;19121;52.428;10.816;2022-11-14T00:29:27;18.00;51.80
32753;DHT22;19121;52.428;10.816;2022-11-14T00:31:52;18.10;51.80
32753;DHT22;19121;52.428;10.816;2022-11-14T00:34:18;18.10;51.80
32753;DHT22;19121;52.428;10.816;2022-11-14T00:36:43;18.10;51.80
32753;DHT22;19121;52.428;10.816;2022-11-14T00:39:12;18.00;51.80
32753;DHT22;19121;52.428;10.816;2022-11-14T00:41:38;18.00;51.80
32753;DHT22;19121;52.428;10.816;2022-11-14T00:44:03;18.00;51.80
32753;DHT22;19121;52.428;10.816;2022-11-14T00:46:29;18.10;51.80
32753;DHT22;19121;52.428;10.816;2022-11-14T00:48:54;18.10;51.80
32753;DHT22;19121;52.428;10.816;2022-11-14T00:51:19;18.00;51.70
32753;DHT22;19121;52.428;10.816;2022-11-14T00:53:45;18.00;51.80
32753;DHT22;19121;52.428;10.816;2022-11-14T00:56:10;18.00;51.80
32753;DHT22;19121;52.428;10.816;2022-11-14T00:58:36;18.00;51.80
32753;DHT22;19121;52.428;10.816;2022-11-14T01:01:01;18.00;51.80
32753;DHT22;19121;52.428;10.816;2022-11-14T01:03:27;18.00;51.80
32753;DHT22;19121;52.428;10.816;2022-11-14T01:05:52;18.00;51.80
32753;DHT22;19121;52.428;10.816;2022-11-14T01:08:18;18.00;51.80
32753;DHT22;19121;52.428;10.816;2022-11-14T01:10:45;18.00;51.80
32753;DHT22;19121;52.428;10.816;2022-11-14T01:13:10;18.00;51.80
32753;DHT22;19121;52.428;10.816;2022-11-14T01:15:39;18.00;51.80
32753;DHT22;19121;52.428;10.816;2022-11-14T01:18:05;18.00;51.80
32753;DHT22;19121;52.428;10.816;2022-11-14T01:20:30;18.00;51.80
32753;DHT22;19121;52.428;10.816;2022-11-14T01:22:56;18.00;51.80
32753;DHT22;19121;52.428;10.816;2022-11-14T01:25:21;18.00;52.40
32753;DHT22;19121;52.428;10.816;2022-11-14T01:27:46;18.00;51.70
32753;DHT22;19121;52.428;10.816;2022-11-14T01:30:12;18.00;51.70
32753;DHT22;19121;52.428;10.816;2022-11-14T01:32:37;18.00;51.80
32753;DHT22;19121;52.428;10.816;2022-11-14T01:35:03;18.00;51.80
32753;DHT22;19121;52.428;10.816;2022-11-14T01:37:28;18.00;51.80
32753;DHT22;19121;52.428;10.816;2022-11-14T01:39:54;18.00;51.80
32753;DHT22;19121;52.428;10.816;2022-11-14T01:42:19;18.00;51.70
32753;DHT22;19121;52.428;10.816;2022-11-14T01:44:46;18.00;51.70
32753;DHT22;19121;52.428;10.816;2022-11-14T01:47:12;18.00;51.80
32753;DHT22;19121;52.428;10.816;2022-11-14T01:49:40;18.00;51.80
32753;DHT22;19121;52.428;10.816;2022-11-14T01:52:09;18.00;51.80
32753;DHT22;19121;52.428;10.816;2022-11-14T01:54:38;18.00;51.80
32753;DHT22;19121;52.428;10.816;2022-11-14T01:57:05;17.90;51.70
32753;DHT22;19121;52.428;10.816;2022-11-14T01:59:39;18.00;51.80
32753;DHT22;19121;52.428;10.816;2022-11-14T02:02:07;18.00;51.80
32753;DHT22;19121;52.428;10.816;2022-11-14T02:04:39;17.90;51.70
32753;DHT22;19121;52.428;10.816;2022-11-14T02:07:05;18.00;51.80
32753;DHT22;19121;52.428;10.816;2022-11-14T02:09:33;18.00;51.80
32753;DHT22;19121;52.428;10.816;2022-11-14T02:12:00;18.00;51.80
32753;DHT22;19121;52.428;10.816;2022-11-14T02:14:26;17.90;51.70
32753;DHT22;19121;52.428;10.816;2022-11-14T02:16:52;18.00;51.80
32753;DHT22;19121;52.428;10.816;2022-11-14T02:19:18;18.00;51.80
32753;DHT22;19121;52.428;10.816;2022-11-14T02:21:43;17.90;51.70
32753;DHT22;19121;52.428;10.816;2022-11-14T02:24:09;17.90;51.70
32753;DHT22;19121;52.428;10.816;2022-11-14T02:26:35;17.90;51.70
32753;DHT22;19121;52.428;10.816;2022-11-14T02:29:00;17.90;51.70
32753;DHT22;19121;52.428;10.816;2022-11-14T02:31:26;17.90;51.70
32753;DHT22;19121;52.428;10.816;2022-11-14T02:33:51;17.90;51.70
32753;DHT22;19121;52.428;10.816;2022-11-14T02:36:17;17.90;51.80
32753;DHT22;19121;52.428;10.816;2022-11-14T02:38:42;17.90;51.70
32753;DHT22;19121;52.428;10.816;2022-11-14T02:41:07;17.90;52.30
32753;DHT22;19121;52.428;10.816;2022-11-14T02:43:33;17.90;51.80
32753;DHT22;19121;52.428;10.816;2022-11-14T02:45:58;17.90;52.30
32753;DHT22;19121;52.428;10.816;2022-11-14T02:48:24;17.90;51.80
32753;DHT22;19121;52.428;10.816;2022-11-14T02:50:49;17.90;51.70
32753;DHT22;19121;52.428;10.816;2022-11-14T02:53:15;17.90;51.80
32753;DHT22;19121;52.428;10.816;2022-11-14T02:55:40;17.90;51.70
32753;DHT22;19121;52.428;10.816;2022-11-14T02:58:06;17.90;51.70
32753;DHT22;19121;52.428;10.816;2022-11-14T03:00:32;17.90;51.70
32753;DHT22;19121;52.428;10.816;2022-11-14T03:02:57;17.90;51.80
32753;DHT22;19121;52.428;10.816;2022-11-14T03:05:22;17.90;51.80
32753;DHT22;19121;52.428;10.816;2022-11-14T03:07:51;17.90;51.70
32753;DHT22;19121;52.428;10.816;2022-11-14T03:10:16;17.90;51.80
32753;DHT22;19121;52.428;10.816;2022-11-14T03:12:42;17.90;51.80
32753;DHT22;19121;52.428;10.816;2022-11-14T03:15:07;17.90;51.80
32753;DHT22;19121;52.428;10.816;2022-11-14T03:17:33;17.90;51.90
32753;DHT22;19121;52.428;10.816;2022-11-14T03:19:59;17.90;51.80
32753;DHT22;19121;52.428;10.816;2022-11-14T03:22:24;17.90;51.80
32753;DHT22;19121;52.428;10.816;2022-11-14T03:24:49;17.90;51.70
32753;DHT22;19121;52.428;10.816;2022-11-14T03:27:15;18.00;51.70
32753;DHT22;19121;52.428;10.816;2022-11-14T03:29:40;18.00;51.70
32753;DHT22;19121;52.428;10.816;2022-11-14T03:32:06;18.00;51.70
32753;DHT22;19121;52.428;10.816;2022-11-14T03:34:31;18.00;51.60
32753;DHT22;19121;52.428;10.816;2022-11-14T03:36:56;18.10;51.60
32753;DHT22;19121;52.428;10.816;2022-11-14T03:39:22;18.00;51.50
32753;DHT22;19121;52.428;10.816;2022-11-14T03:41:47;18.10;51.50
32753;DHT22;19121;52.428;10.816;2022-11-14T03:44:13;18.10;51.50
32753;DHT22;19121;52.428;10.816;2022-11-14T03:46:38;18.10;51.50
32753;DHT22;19121;52.428;10.816;2022-11-14T03:49:03;18.10;51.50
32753;DHT22;19121;52.428;10.816;2022-11-14T03:51:29;18.10;51.50
32753;DHT22;19121;52.428;10.816;2022-11-14T03:53:54;18.10;51.50
32753;DHT22;19121;52.428;10.816;2022-11-14T03:56:20;18.10;51.50
32753;DHT22;19121;52.428;10.816;2022-11-14T03:58:45;18.10;51.40
32753;DHT22;19121;52.428;10.816;2022-11-14T04:01:10;18.10;51.50
32753;DHT22;19121;52.428;10.816;2022-11-14T04:03:36;18.10;51.40
32753;DHT22;19121;52.428;10.816;2022-11-14T04:06:01;18.10;51.40
32753;DHT22;19121;52.428;10.816;2022-11-14T04:08:27;18.10;51.40
32753;DHT22;19121;52.428;10.816;2022-11-14T04:10:52;18.10;51.40
32753;DHT22;19121;52.428;10.816;2022-11-14T04:13:18;18.10;51.40
32753;DHT22;19121;52.428;10.816;2022-11-14T04:15:43;18.10;51.40
32753;DHT22;19121;52.428;10.816;2022-11-14T04:18:09;18.10;51.40
32753;DHT22;19121;52.428;10.816;2022-11-14T04:20:34;18.10;51.50
32753;DHT22;19121;52.428;10.816;2022-11-14T04:22:59;18.10;51.40
32753;DHT22;19121;52.428;10.816;2022-11-14T04:25:25;18.10;51.40
32753;DHT22;19121;52.428;10.816;2022-11-14T04:27:50;18.10;51.40
32753;DHT22;19121;52.428;10.816;2022-11-14T04:30:16;18.10;51.40
32753;DHT22;19121;52.428;10.816;2022-11-14T04:32:43;18.10;51.40
32753;DHT22;19121;52.428;10.816;2022-11-14T04:35:08;18.10;51.40
32753;DHT22;19121;52.428;10.816;2022-11-14T04:37:34;18.10;51.40
32753;DHT22;19121;52.428;10.816;2022-11-14T04:39:59;18.10;51.40
32753;DHT22;19121;52.428;10.816;2022-11-14T04:42:26;18.10;51.40
32753;DHT22;19121;52.428;10.816;2022-11-14T04:44:52;18.10;51.40
32753;DHT22;19121;52.428;10.816;2022-11-14T04:47:17;18.10;51.40
32753;DHT22;19121;52.428;10.816;2022-11-14T04:49:43;18.10;51.40
32753;DHT22;19121;52.428;10.816;2022-11-14T04:52:08;18.10;51.40
32753;DHT22;19121;52.428;10.816;2022-11-14T04:54:34;18.10;51.40
32753;DHT22;19121;52.428;10.816;2022-11-14T04:56:59;18.10;51.40
32753;DHT22;19121;52.428;10.816;2022-11-14T04:59:24;18.10;51.40
32753;DHT22;19121;52.428;10.816;2022-11-14T05:01:50;18.10;51.50
32753;DHT22;19121;52.428;10.816;2022-11-14T05:04:15;18.10;51.40
32753;DHT22;19121;52.428;10.816;2022-11-14T05:06:40;18.10;51.40
32753;DHT22;19121;52.428;10.816;2022-11-14T05:09:06;18.10;51.40
32753;DHT22;19121;52.428;10.816;2022-11-14T05:11:31;18.10;51.40
32753;DHT22;19121;52.428;10.816;2022-11-14T05:13:57;18.10;51.40
32753;DHT22;19121;52.428;10.816;2022-11-14T05:16:22;18.10;51.40
32753;DHT22;19121;52.428;10.816;2022-11-14T05:18:47;18.10;51.40
32753;DHT22;19121;52.428;10.816;2022-11-14T05:21:13;18.10;51.40
32753;DHT22;19121;52.428;10.816;2022-11-14T05:23:39;18.10;51.30
32753;DHT22;19121;52.428;10.816;2022-11-14T05:26:05;18.10;51.40
32753;DHT22;19121;52.428;10.816;2022-11-14T05:28:31;18.10;51.40
32753;DHT22;19121;52.428;10.816;2022-11-14T05:31:03;18.10;51.40
32753;DHT22;19121;52.428;10.816;2022-11-14T05:33:29;18.10;51.30
32753;DHT22;19121;52.428;10.816;2022-11-14T05:35:55;18.10;51.30
32753;DHT22;19121;52.428;10.816;2022-11-14T05:38:21;18.10;51.30
32753;DHT22;19121;52.428;10.816;2022-11-14T05:40:46;18.10;51.30
32753;DHT22;19121;52.428;10.816;2022-11-14T05:43:11;18.10;51.30
32753;DHT22;19121;52.428;10.816;2022-11-14T05:45:37;18.10;51.30
32753;DHT22;19121;52.428;10.816;2022-11-14T05:48:02;18.10;51.30
32753;DHT22;19121;52.428;10.816;2022-11-14T05:50:28;18.10;51.30
32753;DHT22;19121;52.428;10.816;2022-11-14T05:52:54;18.10;51.30
32753;DHT22;19121;52.428;10.816;2022-11-14T05:55:20;18.10;51.90
32753;DHT22;19121;52.428;10.816;2022-11-14T05:57:45;18.10;51.30
32753;DHT22;19121;52.428;10.816;2022-11-14T06:00:11;18.10;51.30
32753;DHT22;19121;52.428;10.816;2022-11-14T06:02:36;18.10;51.30
32753;DHT22;19121;52.428;10.816;2022-11-14T06:05:02;18.10;51.30
32753;DHT22;19121;52.428;10.816;2022-11-14T06:07:27;18.10;51.30
32753;DHT22;19121;52.428;10.816;2022-11-14T06:09:52;18.10;51.80
32753;DHT22;19121;52.428;10.816;2022-11-14T06:12:18;18.10;51.20
32753;DHT22;19121;52.428;10.816;2022-11-14T06:14:43;18.10;51.20
32753;DHT22;19121;52.428;10.816;2022-11-14T06:17:08;18.10;51.20
32753;DHT22;19121;52.428;10.816;2022-11-14T06:19:34;18.10;51.20
32753;DHT22;19121;52.428;10.816;2022-11-14T06:21:59;18.20;51.30
32753;DHT22;19121;52.428;10.816;2022-11-14T06:24:25;18.10;51.20
32753;DHT22;19121;52.428;10.816;2022-11-14T06:26:50;18.10;51.20
32753;DHT22;19121;52.428;10.816;2022-11-14T06:29:15;18.10;51.20
32753;DHT22;19121;52.428;10.816;2022-11-14T06:31:41;18.10;51.20
32753;DHT22;19121;52.428;10.816;2022-11-14T06:34:06;18.10;51.20
32753;DHT22;19121;52.428;10.816;2022-11-14T06:36:32;18.10;51.20
32753;DHT22;19121;52.428;10.816;2022-11-14T06:38:57;18.10;51.20
32753;DHT22;19121;52.428;10.816;2022-11-14T06:41:22;18.10;51.20
32753;DHT22;19121;52.428;10.816;2022-11-14T06:43:49;18.20;51.20
32753;DHT22;19121;52.428;10.816;2022-11-14T06:46:16;18.10;51.20
32753;DHT22;19121;52.428;10.816;2022-11-14T06:48:42;18.10;51.30
32753;DHT22;19121;52.428;10.816;2022-11-14T06:51:09;18.20;51.30
32753;DHT22;19121;52.428;10.816;2022-11-14T06:53:34;18.20;51.30
32753;DHT22;19121;52.428;10.816;2022-11-14T06:56:01;18.20;51.30
32753;DHT22;19121;52.428;10.816;2022-11-14T06:58:28;18.20;51.30
32753;DHT22;19121;52.428;10.816;2022-11-14T07:00:53;18.20;51.20
32753;DHT22;19121;52.428;10.816;2022-11-14T07:03:19;18.20;51.20
32753;DHT22;19121;52.428;10.816;2022-11-14T07:05:44;18.20;51.30
32753;DHT22;19121;52.428;10.816;2022-11-14T07:08:10;18.20;51.20
32753;DHT22;19121;52.428;10.816;2022-11-14T07:10:35;18.20;51.30
32753;DHT22;19121;52.428;10.816;2022-11-14T07:13:01;18.20;52.00
32753;DHT22;19121;52.428;10.816;2022-11-14T07:15:26;18.30;52.40
32753;DHT22;19121;52.428;10.816;2022-11-14T07:17:52;18.30;52.90
32753;DHT22;19121;52.428;10.816;2022-11-14T07:20:17;18.20;52.80
32753;DHT22;19121;52.428;10.816;2022-11-14T07:22:44;18.30;52.70
32753;DHT22;19121;52.428;10.816;2022-11-14T07:25:09;18.30;52.70
32753;DHT22;19121;52.428;10.816;2022-11-14T07:27:35;18.40;52.80
32753;DHT22;19121;52.428;10.816;2022-11-14T07:30:00;18.40;53.20
32753;DHT22;19121;52.428;10.816;2022-11-14T07:32:26;18.40;52.70
32753;DHT22;19121;52.428;10.816;2022-11-14T07:34:51;18.40;52.20
32753;DHT22;19121;52.428;10.816;2022-11-14T07:37:16;18.40;52.20
32753;DHT22;19121;52.428;10.816;2022-11-14T07:39:42;18.40;52.20
32753;DHT22;19121;52.428;10.816;2022-11-14T07:42:07;18.40;52.30
32753;DHT22;19121;52.428;10.816;2022-11-14T07:44:33;18.40;52.50
32753;DHT22;19121;52.428;10.816;2022-11-14T07:46:58;18.40;52.70
32753;DHT22;19121;52.428;10.816;2022-11-14T07:49:23;18.40;52.50
32753;DHT22;19121;52.428;10.816;2022-11-14T07:51:49;18.50;52.70
32753;DHT22;19121;52.428;10.816;2022-11-14T07:54:14;18.50;52.70
32753;DHT22;19121;52.428;10.816;2022-11-14T07:56:39;18.50;52.50
32753;DHT22;19121;52.428;10.816;2022-11-14T07:59:05;18.50;52.50
32753;DHT22;19121;52.428;10.816;2022-11-14T08:01:30;18.60;52.40
32753;DHT22;19121;52.428;10.816;2022-11-14T08:03:56;18.60;52.50
32753;DHT22;19121;52.428;10.816;2022-11-14T08:06:21;18.60;52.60
32753;DHT22;19121;52.428;10.816;2022-11-14T08:08:46;18.60;53.10
32753;DHT22;19121;52.428;10.816;2022-11-14T08:11:12;18.70;53.50
32753;DHT22;19121;52.428;10.816;2022-11-14T08:13:37;18.70;53.50
32753;DHT22;19121;52.428;10.816;2022-11-14T08:16:06;18.70;53.60
32753;DHT22;19121;52.428;10.816;2022-11-14T08:18:32;18.70;53.50
32753;DHT22;19121;52.428;10.816;2022-11-14T08:20:57;18.70;53.50
32753;DHT22;19121;52.428;10.816;2022-11-14T08:23:23;18.70;53.50
32753;DHT22;19121;52.428;10.816;2022-11-14T08:25:48;18.70;53.40
32753;DHT22;19121;52.428;10.816;2022-11-14T08:28:14;18.70;53.40
32753;DHT22;19121;52.428;10.816;2022-11-14T08:30:39;18.80;53.20
32753;DHT22;19121;52.428;10.816;2022-11-14T08:33:05;18.80;53.10
32753;DHT22;19121;52.428;10.816;2022-11-14T08:35:34;18.80;53.00
32753;DHT22;19121;52.428;10.816;2022-11-14T08:38:00;18.80;52.90
32753;DHT22;19121;52.428;10.816;2022-11-14T08:40:25;18.80;52.80
32753;DHT22;19121;52.428;10.816;2022-11-14T08:42:51;18.80;52.80
32753;DHT22;19121;52.428;10.816;2022-11-14T08:45:16;18.90;52.90
32753;DHT22;19121;52.428;10.816;2022-11-14T08:47:41;18.90;52.80
32753;DHT22;19121;52.428;10.816;2022-11-14T08:50:07;18.90;52.90
32753;DHT22;19121;52.428;10.816;2022-11-14T08:52:32;18.90;52.90
32753;DHT22;19121;52.428;10.816;2022-11-14T08:54:58;18.90;52.90
32753;DHT22;19121;52.428;10.816;2022-11-14T08:57:23;19.00;52.80
32753;DHT22;19121;52.428;10.816;2022-11-14T08:59:49;19.00;52.70
32753;DHT22;19121;52.428;10.816;2022-11-14T09:02:14;19.00;52.70
32753;DHT22;19121;52.428;10.816;2022-11-14T09:04:39;19.00;52.70
32753;DHT22;19121;52.428;10.816;2022-11-14T09:07:06;19.00;52.60
32753;DHT22;19121;52.428;10.816;2022-11-14T09:09:31;19.00;52.60
32753;DHT22;19121;52.428;10.816;2022-11-14T09:11:58;19.00;52.60
32753;DHT22;19121;52.428;10.816;2022-11-14T09:14:23;19.00;52.50
32753;DHT22;19121;52.428;10.816;2022-11-14T09:16:49;19.00;52.40
32753;DHT22;19121;52.428;10.816;2022-11-14T09:19:14;19.00;52.30
32753;DHT22;19121;52.428;10.816;2022-11-14T09:21:39;19.10;52.00
32753;DHT22;19121;52.428;10.816;2022-11-14T09:24:05;19.10;51.90
32753;DHT22;19121;52.428;10.816;2022-11-14T09:26:32;19.10;51.80
32753;DHT22;19121;52.428;10.816;2022-11-14T09:28:57;19.10;51.70
32753;DHT22;19121;52.428;10.816;2022-11-14T09:31:23;19.20;51.70
32753;DHT22;19121;52.428;10.816;2022-11-14T09:33:48;19.40;51.60
32753;DHT22;19121;52.428;10.816;2022-11-14T09:36:14;19.50;51.40
32753;DHT22;19121;52.428;10.816;2022-11-14T09:38:43;19.60;51.20
32753;DHT22;19121;52.428;10.816;2022-11-14T09:41:17;19.80;50.90
32753;DHT22;19121;52.428;10.816;2022-11-14T09:43:50;19.90;50.60
32753;DHT22;19121;52.428;10.816;2022-11-14T09:46:21;19.90;50.60
32753;DHT22;19121;52.428;10.816;2022-11-14T09:48:48;19.80;50.70
32753;DHT22;19121;52.428;10.816;2022-11-14T09:51:14;19.80;50.90
32753;DHT22;19121;52.428;10.816;2022-11-14T09:53:48;19.70;51.00
32753;DHT22;19121;52.428;10.816;2022-11-14T09:56:17;19.70;51.20
32753;DHT22;19121;52.428;10.816;2022-11-14T09:58:43;19.70;51.00
32753;DHT22;19121;52.428;10.816;2022-11-14T10:01:16;19.70;51.10
32753;DHT22;19121;52.428;10.816;2022-11-14T10:06:33;19.70;51.00
32753;DHT22;19121;52.428;10.816;2022-11-14T10:11:46;19.70;51.00
32753;DHT22;19121;52.428;10.816;2022-11-14T10:19:28;19.80;51.00
32753;DHT22;19121;52.428;10.816;2022-11-14T10:22:00;19.90;51.00
32753;DHT22;19121;52.428;10.816;2022-11-14T10:24:38;19.90;51.00
32753;DHT22;19121;52.428;10.816;2022-11-14T10:27:08;19.90;51.10
32753;DHT22;19121;52.428;10.816;2022-11-14T10:29:40;19.90;51.10
32753;DHT22;19121;52.428;10.816;2022-11-14T10:32:26;19.90;51.30
32753;DHT22;19121;52.428;10.816;2022-11-14T10:35:14;19.80;51.40
32753;DHT22;19121;52.428;10.816;2022-11-14T10:37:47;19.80;51.60
32753;DHT22;19121;52.428;10.816;2022-11-14T10:40:16;19.70;51.70
32753;DHT22;19121;52.428;10.816;2022-11-14T10:42:43;19.70;51.80
32753;DHT22;19121;52.428;10.816;2022-11-14T10:45:30;19.70;51.80
32753;DHT22;19121;52.428;10.816;2022-11-14T10:48:08;19.80;51.80
32753;DHT22;19121;52.428;10.816;2022-11-14T10:50:48;19.70;51.80
32753;DHT22;19121;52.428;10.816;2022-11-14T10:53:21;19.80;51.80
32753;DHT22;19121;52.428;10.816;2022-11-14T10:55:50;19.80;52.00
32753;DHT22;19121;52.428;10.816;2022-11-14T10:58:17;19.80;51.90
32753;DHT22;19121;52.428;10.816;2022-11-14T11:00:42;19.90;51.80
32753;DHT22;19121;52.428;10.816;2022-11-14T11:03:08;19.80;51.70
32753;DHT22;19121;52.428;10.816;2022-11-14T11:05:43;19.80;51.80
32753;DHT22;19121;52.428;10.816;2022-11-14T11:08:09;19.80;51.80
32753;DHT22;19121;52.428;10.816;2022-11-14T11:10:53;19.80;51.80
32753;DHT22;19121;52.428;10.816;2022-11-14T11:13:41;19.80;51.80
32753;DHT22;19121;52.428;10.816;2022-11-14T11:16:12;19.80;51.80
32753;DHT22;19121;52.428;10.816;2022-11-14T11:18:37;19.80;51.90
32753;DHT22;19121;52.428;10.816;2022-11-14T11:21:07;19.80;52.00
32753;DHT22;19121;52.428;10.816;2022-11-14T11:23:33;19.80;52.00
32753;DHT22;19121;52.428;10.816;2022-11-14T11:25:59;19.70;51.90
32753;DHT22;19121;52.428;10.816;2022-11-14T11:28:25;19.80;51.90
32753;DHT22;19121;52.428;10.816;2022-11-14T11:30:56;19.70;51.80
32753;DHT22;19121;52.428;10.816;2022-11-14T11:33:23;19.80;51.70
32753;DHT22;19121;52.428;10.816;2022-11-14T11:35:50;19.80;51.70
32753;DHT22;19121;52.428;10.816;2022-11-14T11:38:17;19.70;51.60
32753;DHT22;19121;52.428;10.816;2022-11-14T11:40:43;19.80;51.70
32753;DHT22;19121;52.428;10.816;2022-11-14T11:45:54;19.70;51.70
32753;DHT22;19121;52.428;10.816;2022-11-14T11:48:22;19.70;51.70
32753;DHT22;19121;52.428;10.816;2022-11-14T11:50:47;19.70;51.80
32753;DHT22;19121;52.428;10.816;2022-11-14T11:55:40;19.70;51.90
32753;DHT22;19121;52.428;10.816;2022-11-14T11:58:11;19.80;52.10
32753;DHT22;19121;52.428;10.816;2022-11-14T12:00:37;19.70;52.20
32753;DHT22;19121;52.428;10.816;2022-11-14T12:03:03;19.70;52.00
32753;DHT22;19121;52.428;10.816;2022-11-14T12:08:04;19.70;52.00
32753;DHT22;19121;52.428;10.816;2022-11-14T12:10:34;19.70;52.30
32753;DHT22;19121;52.428;10.816;2022-11-14T12:15:46;19.70;52.20
32753;DHT22;19121;52.428;10.816;2022-11-14T12:20:48;19.70;52.10
32753;DHT22;19121;52.428;10.816;2022-11-14T12:30:58;19.80;52.20
32753;DHT22;19121;52.428;10.816;2022-11-14T12:33:28;19.80;52.10
32753;DHT22;19121;52.428;10.816;2022-11-14T12:35:56;19.80;52.20
32753;DHT22;19121;52.428;10.816;2022-11-14T12:38:22;19.80;52.30
32753;DHT22;19121;52.428;10.816;2022-11-14T12:40:49;19.80;52.30
32753;DHT22;19121;52.428;10.816;2022-11-14T12:43:35;19.70;52.20
32753;DHT22;19121;52.428;10.816;2022-11-14T12:46:02;19.80;52.20
32753;DHT22;19121;52.428;10.816;2022-11-14T12:48:29;19.70;52.10
32753;DHT22;19121;52.428;10.816;2022-11-14T12:50:55;19.80;52.60
32753;DHT22;19121;52.428;10.816;2022-11-14T12:58:48;19.70;52.00
32753;DHT22;19121;52.428;10.816;2022-11-14T13:01:19;19.70;52.10
32753;DHT22;19121;52.428;10.816;2022-11-14T13:03:50;19.70;52.10
32753;DHT22;19121;52.428;10.816;2022-11-14T13:06:19;19.70;52.80
32753;DHT22;19121;52.428;10.816;2022-11-14T13:14:15;19.70;52.70
32753;DHT22;19121;52.428;10.816;2022-11-14T13:20:21;19.70;52.10
32753;DHT22;19121;52.428;10.816;2022-11-14T13:33:39;19.70;52.10
32753;DHT22;19121;52.428;10.816;2022-11-14T13:36:05;19.70;52.10
32753;DHT22;19121;52.428;10.816;2022-11-14T13:41:21;19.70;52.10
32753;DHT22;19121;52.428;10.816;2022-11-14T13:46:38;19.70;52.20
32753;DHT22;19121;52.428;10.816;2022-11-14T13:51:52;19.70;52.30
32753;DHT22;19121;52.428;10.816;2022-11-14T13:54:18;19.70;52.20
32753;DHT22;19121;52.428;10.816;2022-11-14T13:56:49;19.70;52.40
32753;DHT22;19121;52.428;10.816;2022-11-14T13:59:30;19.70;52.40
32753;DHT22;19121;52.428;10.816;2022-11-14T14:02:15;19.70;52.50
32753;DHT22;19121;52.428;10.816;2022-11-14T14:07:15;19.70;52.50
32753;DHT22;19121;52.428;10.816;2022-11-14T14:09:47;19.70;52.50
32753;DHT22;19121;52.428;10.816;2022-11-14T14:14:55;19.70;52.50
32753;DHT22;19121;52.428;10.816;2022-11-14T14:17:33;19.70;52.50
32753;DHT22;19121;52.428;10.816;2022-11-14T14:25:20;19.70;52.50
32753;DHT22;19121;52.428;10.816;2022-11-14T14:30:32;19.70;52.50
32753;DHT22;19121;52.428;10.816;2022-11-14T14:35:33;19.70;52.50
32753;DHT22;19121;52.428;10.816;2022-11-14T14:37:59;19.70;52.50
32753;DHT22;19121;52.428;10.816;2022-11-14T14:40:31;19.70;53.60
32753;DHT22;19121;52.428;10.816;2022-11-14T14:42:58;19.70;53.30
32753;DHT22;19121;52.428;10.816;2022-11-14T14:45:25;19.70;53.30
32753;DHT22;19121;52.428;10.816;2022-11-14T14:50:55;19.70;53.10
32753;DHT22;19121;52.428;10.816;2022-11-14T14:53:31;19.70;53.10
32753;DHT22;19121;52.428;10.816;2022-11-14T14:55:58;19.70;53.20
32753;DHT22;19121;52.428;10.816;2022-11-14T14:58:25;19.70;53.10
32753;DHT22;19121;52.428;10.816;2022-11-14T15:00:52;19.70;53.00
32753;DHT22;19121;52.428;10.816;2022-11-14T15:03:18;19.70;53.20
32753;DHT22;19121;52.428;10.816;2022-11-14T15:05:44;19.70;52.90
32753;DHT22;19121;52.428;10.816;2022-11-14T15:08:10;19.70;52.90
32753;DHT22;19121;52.428;10.816;2022-11-14T15:10:36;19.70;52.90
32753;DHT22;19121;52.428;10.816;2022-11-14T15:13:03;19.70;52.90
32753;DHT22;19121;52.428;10.816;2022-11-14T15:15:31;19.60;52.80
32753;DHT22;19121;52.428;10.816;2022-11-14T15:17:57;19.70;52.80
32753;DHT22;19121;52.428;10.816;2022-11-14T15:20:27;19.70;52.70
32753;DHT22;19121;52.428;10.816;2022-11-14T15:26:02;19.70;52.70
32753;DHT22;19121;52.428;10.816;2022-11-14T15:28:28;19.70;53.00
32753;DHT22;19121;52.428;10.816;2022-11-14T15:30:55;19.70;52.90
32753;DHT22;19121;52.428;10.816;2022-11-14T15:33:27;19.60;52.90
32753;DHT22;19121;52.428;10.816;2022-11-14T15:38:30;19.70;52.80
32753;DHT22;19121;52.428;10.816;2022-11-14T15:48:52;19.70;52.80
32753;DHT22;19121;52.428;10.816;2022-11-14T15:51:17;19.70;52.80
32753;DHT22;19121;52.428;10.816;2022-11-14T15:53:46;19.70;53.10
32753;DHT22;19121;52.428;10.816;2022-11-14T15:56:11;19.70;53.20
32753;DHT22;19121;52.428;10.816;2022-11-14T15:58:38;19.70;53.30
32753;DHT22;19121;52.428;10.816;2022-11-14T16:01:03;19.70;53.20
32753;DHT22;19121;52.428;10.816;2022-11-14T16:03:28;19.70;53.00
32753;DHT22;19121;52.428;10.816;2022-11-14T16:05:54;19.70;52.90
32753;DHT22;19121;52.428;10.816;2022-11-14T16:08:19;19.70;52.80
32753;DHT22;19121;52.428;10.816;2022-11-14T16:10:45;19.70;53.30
32753;DHT22;19121;52.428;10.816;2022-11-14T16:13:10;19.70;52.60
32753;DHT22;19121;52.428;10.816;2022-11-14T16:15:36;19.70;52.60
32753;DHT22;19121;52.428;10.816;2022-11-14T16:18:02;19.70;52.70
32753;DHT22;19121;52.428;10.816;2022-11-14T16:20:28;19.70;52.70
32753;DHT22;19121;52.428;10.816;2022-11-14T16:22:54;19.70;52.60
32753;DHT22;19121;52.428;10.816;2022-11-14T16:25:25;19.70;52.50
32753;DHT22;19121;52.428;10.816;2022-11-14T16:27:51;19.70;52.70
32753;DHT22;19121;52.428;10.816;2022-11-14T16:30:17;19.70;52.60
32753;DHT22;19121;52.428;10.816;2022-11-14T16:32:43;19.70;52.60
32753;DHT22;19121;52.428;10.816;2022-11-14T16:35:28;19.70;52.50
32753;DHT22;19121;52.428;10.816;2022-11-14T16:37:54;19.70;52.50
32753;DHT22;19121;52.428;10.816;2022-11-14T16:40:20;19.70;52.70
32753;DHT22;19121;52.428;10.816;2022-11-14T16:42:47;19.70;53.40
32753;DHT22;19121;52.428;10.816;2022-11-14T16:45:13;19.70;52.80
32753;DHT22;19121;52.428;10.816;2022-11-14T16:47:39;19.70;52.80
32753;DHT22;19121;52.428;10.816;2022-11-14T16:50:04;19.70;52.70